Time;durP1;ratioP1;P1;durP2;ratioP2;P2;SDS_P1;SDS_P2;PMS_P1;PMS_P2;Temp;Humidity;BMP_temperature;BMP_pressure;BME280_temperature;BME280_humidity;BME280_pressure;Samples;Min_cycle;Max_cycle;Signal;HPM_P1;HPM_P2
2022/08/03 00:00:25;;;;;;;6.47;2.30;;;22.10;99.90;;;;;;5101676;28;20200;-75
2022/08/03 00:02:52;;;;;;;10.50;2.38;;;22.10;99.90;;;;;;5100112;28;20299;-77
2022/08/03 00:05:19;;;;;;;7.88;2.10;;;22.00;99.90;;;;;;5101777;28;20264;-75
2022/08/03 00:07:46;;;;;;;5.90;2.20;;;22.00;99.90;;;;;;5102698;28;20679;-75
2022/08/03 00:10:15;;;;;;;8.93;2.15;;;22.00;99.90;;;;;;5098859;28;20188;-76
2022/08/03 00:12:42;;;;;;;4.13;1.88;;;21.90;99.90;;;;;;5101666;28;20204;-75
2022/08/03 00:15:09;;;;;;;8.40;2.10;;;21.80;99.90;;;;;;5094093;28;20214;-75
2022/08/03 00:17:42;;;;;;;10.85;2.40;;;21.80;99.90;;;;;;5098584;28;20232;-74
2022/08/03 00:20:20;;;;;;;6.30;2.28;;;21.80;99.90;;;;;;5098777;28;20671;-74
2022/08/03 00:22:47;;;;;;;5.80;1.80;;;21.80;99.90;;;;;;5098455;28;20307;-75
2022/08/03 00:25:14;;;;;;;8.25;2.28;;;21.70;99.90;;;;;;5100424;28;20199;-76
2022/08/03 00:27:41;;;;;;;6.95;2.35;;;21.70;99.90;;;;;;5101341;27;20199;-76
2022/08/03 00:30:08;;;;;;;4.75;1.85;;;21.70;99.90;;;;;;5097650;28;20668;-75
2022/08/03 00:32:35;;;;;;;7.68;2.05;;;21.60;99.90;;;;;;5097325;28;20756;-76
2022/08/03 00:35:05;;;;;;;7.88;2.50;;;21.60;99.90;;;;;;5105326;28;20264;-75
2022/08/03 00:37:36;;;;;;;5.88;1.92;;;21.60;99.90;;;;;;5097959;28;20695;-75
2022/08/03 00:40:12;;;;;;;6.47;2.67;;;21.60;99.90;;;;;;5100401;28;20362;-76
2022/08/03 00:42:46;;;;;;;9.10;2.22;;;21.50;99.90;;;;;;5097912;28;20203;-75
2022/08/03 00:45:13;;;;;;;5.28;2.22;;;21.50;99.90;;;;;;5098820;28;20203;-75
2022/08/03 00:47:40;;;;;;;7.13;2.05;;;21.40;99.90;;;;;;5096931;28;20219;-75
2022/08/03 00:50:07;;;;;;;7.88;2.30;;;21.40;99.90;;;;;;5101159;28;20686;-75
2022/08/03 00:52:34;;;;;;;6.15;2.78;;;21.30;99.90;;;;;;5100745;28;20207;-75
2022/08/03 00:55:03;;;;;;;5.63;2.13;;;21.30;99.90;;;;;;5096575;28;20797;-75
2022/08/03 00:57:31;;;;;;;7.80;2.40;;;21.30;99.90;;;;;;5096093;28;20334;-74
2022/08/03 01:00:01;;;;;;;7.07;2.08;;;21.30;99.90;;;;;;5101973;28;20659;-75
2022/08/03 01:02:28;;;;;;;4.95;2.35;;;21.30;99.90;;;;;;5096540;28;20265;-74
2022/08/03 01:04:55;;;;;;;6.97;2.10;;;21.30;99.90;;;;;;5103412;28;20200;-75
2022/08/03 01:07:31;;;;;;;7.13;2.50;;;21.30;99.90;;;;;;5102252;28;20239;-76
2022/08/03 01:10:12;;;;;;;5.78;2.60;;;21.30;99.90;;;;;;5103572;28;20206;-74
2022/08/03 01:12:58;;;;;;;6.70;2.35;;;21.30;99.90;;;;;;5093312;28;20265;-74
2022/08/03 01:15:36;;;;;;;8.65;2.60;;;21.20;99.90;;;;;;5098159;28;20655;-74
2022/08/03 01:18:27;;;;;;;8.65;2.28;;;21.20;99.90;;;;;;5102584;28;20226;-74
2022/08/03 01:20:57;;;;;;;8.85;2.25;;;21.20;99.90;;;;;;5096875;28;20338;-76
2022/08/03 01:23:33;;;;;;;7.90;2.50;;;21.20;99.90;;;;;;5101076;28;20505;-75
2022/08/03 01:26:07;;;;;;;6.43;2.25;;;21.10;99.90;;;;;;5104869;28;20203;-75
2022/08/03 01:28:57;;;;;;;8.48;2.30;;;21.10;99.90;;;;;;5098835;28;20258;-76
2022/08/03 01:31:35;;;;;;;7.93;2.10;;;21.10;99.90;;;;;;5099246;28;20245;-75
2022/08/03 01:34:28;;;;;;;9.35;2.63;;;21.00;99.90;;;;;;5101870;28;20199;-75
2022/08/03 01:36:58;;;;;;;6.47;2.35;;;21.00;99.90;;;;;;5101972;28;20265;-75
2022/08/03 01:39:27;;;;;;;6.20;2.58;;;21.00;99.90;;;;;;5093660;28;20208;-75
2022/08/03 01:42:01;;;;;;;7.35;2.30;;;21.00;99.90;;;;;;5097833;28;20195;-74
2022/08/03 01:44:31;;;;;;;5.78;2.50;;;21.00;99.90;;;;;;5099336;28;20667;-75
2022/08/03 01:47:00;;;;;;;7.05;2.53;;;20.90;99.90;;;;;;5100846;28;20263;-75
2022/08/03 01:49:29;;;;;;;8.77;2.55;;;20.90;99.90;;;;;;5098652;28;20555;-74
2022/08/03 01:51:57;;;;;;;8.15;2.35;;;20.90;99.90;;;;;;5102662;28;20322;-75
2022/08/03 01:54:36;;;;;;;7.00;2.70;;;20.80;99.90;;;;;;5092230;28;20234;-74
2022/08/03 01:57:04;;;;;;;5.93;2.65;;;20.80;99.90;;;;;;5102647;28;20250;-75
2022/08/03 01:59:33;;;;;;;6.20;2.35;;;20.80;99.90;;;;;;5094053;28;20668;-75
2022/08/03 02:02:01;;;;;;;6.32;2.47;;;20.80;99.90;;;;;;5096471;28;20231;-74
2022/08/03 02:04:51;;;;;;;10.68;3.35;;;20.80;99.90;;;;;;5096887;28;20803;-74
2022/08/03 02:07:19;;;;;;;7.38;2.50;;;20.70;99.90;;;;;;5099547;28;20236;-75
2022/08/03 02:09:51;;;;;;;4.95;3.00;;;20.70;99.90;;;;;;5094230;28;20259;-75
2022/08/03 02:12:19;;;;;;;7.70;2.85;;;20.70;99.90;;;;;;5098170;28;20213;-75
2022/08/03 02:14:48;;;;;;;5.80;3.20;;;20.70;99.90;;;;;;5093009;28;20260;-75
2022/08/03 02:17:17;;;;;;;10.15;3.78;;;20.60;99.90;;;;;;5095683;28;20300;-75
2022/08/03 02:20:05;;;;;;;6.57;3.03;;;20.60;99.90;;;;;;5097238;28;20306;-75
2022/08/03 02:22:33;;;;;;;6.28;3.00;;;20.60;99.90;;;;;;5101006;28;20251;-76
2022/08/03 02:25:00;;;;;;;8.88;3.42;;;20.60;99.90;;;;;;5094569;28;20204;-75
2022/08/03 02:27:30;;;;;;;8.00;2.90;;;20.60;99.90;;;;;;5100226;28;20705;-75
2022/08/03 02:30:04;;;;;;;7.80;3.42;;;20.50;99.90;;;;;;5099826;28;20199;-76
2022/08/03 02:32:34;;;;;;;6.82;2.92;;;20.50;99.90;;;;;;5091575;28;20243;-75
2022/08/03 02:35:04;;;;;;;7.90;3.10;;;20.50;99.90;;;;;;5099323;28;20244;-75
2022/08/03 02:37:35;;;;;;;8.43;3.05;;;20.50;99.90;;;;;;5094323;28;20622;-76
2022/08/03 02:40:10;;;;;;;7.93;3.20;;;20.50;99.90;;;;;;5100119;28;20226;-75
2022/08/03 02:42:39;;;;;;;8.50;3.20;;;20.50;99.90;;;;;;5097201;28;20204;-75
2022/08/03 02:45:11;;;;;;;8.38;3.28;;;20.40;99.90;;;;;;5102501;28;20247;-74
2022/08/03 02:47:40;;;;;;;7.45;3.47;;;20.40;99.90;;;;;;5099497;28;20215;-76
2022/08/03 02:50:21;;;;;;;7.93;3.75;;;20.40;99.90;;;;;;5096483;28;20199;-75
2022/08/03 02:52:51;;;;;;;8.20;3.47;;;20.40;99.90;;;;;;5100528;28;20203;-74
2022/08/03 02:55:21;;;;;;;7.85;3.33;;;20.40;99.90;;;;;;5094352;28;20200;-75
2022/08/03 02:57:49;;;;;;;9.57;3.53;;;20.40;99.90;;;;;;5103154;28;20681;-74
2022/08/03 03:00:16;;;;;;;7.35;3.05;;;20.40;99.90;;;;;;5100733;28;20203;-75
2022/08/03 03:02:56;;;;;;;9.50;3.15;;;20.40;99.90;;;;;;5095493;28;20216;-75
2022/08/03 03:05:23;;;;;;;9.35;3.58;;;20.40;99.90;;;;;;5098449;28;20238;-75
2022/08/03 03:08:13;;;;;;;9.30;3.85;;;20.30;99.90;;;;;;5095567;28;20321;-74
2022/08/03 03:10:45;;;;;;;11.15;3.72;;;20.40;99.90;;;;;;5098560;28;20194;-75
2022/08/03 03:13:14;;;;;;;9.60;3.50;;;20.30;99.90;;;;;;5102574;28;20236;-75
2022/08/03 03:15:44;;;;;;;9.32;3.30;;;20.30;99.90;;;;;;5088698;28;20257;-74
2022/08/03 03:18:12;;;;;;;9.70;3.78;;;20.30;99.90;;;;;;5098838;28;20293;-74
2022/08/03 03:20:44;;;;;;;8.93;3.97;;;20.30;99.90;;;;;;5099368;28;20284;-74
2022/08/03 03:23:11;;;;;;;7.47;3.45;;;20.20;99.90;;;;;;5100212;28;20203;-75
2022/08/03 03:25:39;;;;;;;10.77;3.60;;;20.30;99.90;;;;;;5099294;28;20249;-74
2022/08/03 03:28:06;;;;;;;7.32;3.67;;;20.20;99.90;;;;;;5100257;28;20208;-75
2022/08/03 03:30:34;;;;;;;8.13;3.75;;;20.20;99.90;;;;;;5103973;28;20199;-75
2022/08/03 03:33:01;;;;;;;8.98;3.97;;;20.20;99.90;;;;;;5100833;28;20708;-75
2022/08/03 03:35:28;;;;;;;15.50;3.55;;;20.20;99.90;;;;;;5098743;28;20652;-74
2022/08/03 03:37:56;;;;;;;10.25;3.58;;;20.20;99.90;;;;;;5103905;28;20253;-75
2022/08/03 03:40:23;;;;;;;11.30;3.55;;;20.20;99.90;;;;;;5109028;28;20287;-74
2022/08/03 03:42:50;;;;;;;8.98;3.58;;;20.20;99.90;;;;;;5103672;28;20252;-75
2022/08/03 03:45:17;;;;;;;9.80;3.90;;;20.20;99.90;;;;;;5097680;28;20261;-76
2022/08/03 03:47:44;;;;;;;8.13;3.85;;;20.20;99.90;;;;;;5101401;28;20223;-75
2022/08/03 03:50:11;;;;;;;8.68;3.80;;;20.10;99.90;;;;;;5099305;28;20213;-76
2022/08/03 03:52:38;;;;;;;8.98;4.30;;;20.20;99.90;;;;;;5098721;28;20686;-76
2022/08/03 03:55:06;;;;;;;12.23;4.15;;;20.20;99.90;;;;;;5099460;28;20581;-74
2022/08/03 03:57:33;;;;;;;13.35;3.90;;;20.10;99.90;;;;;;5101167;28;20259;-76
2022/08/03 04:00:00;;;;;;;10.25;4.75;;;20.10;99.90;;;;;;5098046;28;20211;-75
2022/08/03 04:02:27;;;;;;;8.93;3.58;;;20.10;99.90;;;;;;5097414;28;20214;-75
2022/08/03 04:10:59;;;;;;;8.00;3.85;;;20.10;99.90;;;;;;5100311;28;20206;-75
2022/08/03 04:13:35;;;;;;;8.95;3.67;;;20.00;99.90;;;;;;5104280;28;20195;-75
2022/08/03 04:16:03;;;;;;;8.63;4.68;;;20.00;99.90;;;;;;5099611;28;20616;-75
2022/08/03 04:18:34;;;;;;;10.32;4.18;;;20.00;99.90;;;;;;5100433;28;20669;-74
2022/08/03 04:21:03;;;;;;;11.45;3.85;;;20.10;99.90;;;;;;5093830;28;20211;-73
2022/08/03 04:23:34;;;;;;;13.40;4.72;;;20.10;99.90;;;;;;5097725;28;20207;-76
2022/08/03 04:26:03;;;;;;;10.43;3.95;;;20.10;99.90;;;;;;5097302;28;20207;-75
2022/08/03 04:28:32;;;;;;;9.57;3.63;;;20.10;99.90;;;;;;5091978;28;20208;-74
2022/08/03 04:31:02;;;;;;;11.40;4.47;;;20.20;99.90;;;;;;5101090;28;20617;-74
2022/08/03 04:33:31;;;;;;;13.27;4.88;;;20.20;99.90;;;;;;5105453;28;20219;-76
2022/08/03 04:36:03;;;;;;;12.02;4.68;;;20.20;99.90;;;;;;5099367;28;20231;-76
2022/08/03 04:38:34;;;;;;;10.45;4.75;;;20.30;99.90;;;;;;5103149;28;20227;-75
2022/08/03 04:41:02;;;;;;;11.32;4.53;;;20.20;99.90;;;;;;5096891;28;20272;-74
2022/08/03 04:43:33;;;;;;;13.85;4.22;;;20.30;99.90;;;;;;5097447;28;20895;-75
2022/08/03 04:46:01;;;;;;;9.13;3.90;;;20.30;99.90;;;;;;5096377;28;20211;-75
2022/08/03 04:48:28;;;;;;;11.27;4.03;;;20.40;99.90;;;;;;5101637;28;20219;-74
2022/08/03 04:50:55;;;;;;;10.75;4.53;;;20.40;99.90;;;;;;5101978;28;20609;-74
2022/08/03 04:53:22;;;;;;;13.05;4.53;;;20.50;99.90;;;;;;5103761;28;20260;-76
2022/08/03 04:55:49;;;;;;;10.57;4.38;;;20.50;99.90;;;;;;5094412;28;20261;-76
2022/08/03 04:58:16;;;;;;;10.38;4.00;;;20.60;99.90;;;;;;5100564;28;20215;-75
2022/08/03 05:00:44;;;;;;;17.67;5.47;;;20.60;99.90;;;;;;5096594;28;20294;-74
2022/08/03 05:03:11;;;;;;;6.68;4.10;;;20.70;99.90;;;;;;5102957;28;20670;-76
2022/08/03 05:05:54;;;;;;;10.35;4.13;;;20.70;99.90;;;;;;5101393;28;20207;-74
2022/08/03 05:08:35;;;;;;;13.63;5.22;;;20.80;99.90;;;;;;5101705;28;20203;-75
2022/08/03 05:11:14;;;;;;;9.10;4.68;;;20.80;99.90;;;;;;5100976;28;20210;-75
2022/08/03 05:13:41;;;;;;;15.75;5.07;;;20.90;99.90;;;;;;5097373;28;20200;-75
2022/08/03 05:16:08;;;;;;;14.55;6.10;;;21.00;99.90;;;;;;5106654;28;20207;-75
2022/08/03 05:18:34;;;;;;;12.15;5.30;;;21.00;99.90;;;;;;5100348;28;20280;-76
2022/08/03 05:21:01;;;;;;;16.98;5.60;;;21.10;99.90;;;;;;5091977;28;20609;-74
2022/08/03 05:23:28;;;;;;;16.33;6.00;;;21.20;99.90;;;;;;5101912;28;20200;-75
2022/08/03 05:25:55;;;;;;;13.23;4.97;;;21.20;99.90;;;;;;5098453;28;20615;-76
2022/08/03 05:28:22;;;;;;;13.18;5.15;;;21.20;99.90;;;;;;5094166;28;20710;-75
2022/08/03 05:30:49;;;;;;;10.82;5.38;;;21.30;99.90;;;;;;5102039;28;20593;-75
2022/08/03 05:33:15;;;;;;;16.17;5.47;;;21.30;99.90;;;;;;5105271;28;20278;-75
2022/08/03 05:35:42;;;;;;;12.70;5.25;;;21.30;99.90;;;;;;5097603;28;20207;-76
2022/08/03 05:38:30;;;;;;;14.88;5.15;;;21.40;99.90;;;;;;5099630;28;20223;-75
2022/08/03 05:41:05;;;;;;;12.10;4.38;;;21.40;99.90;;;;;;5102746;28;20273;-75
2022/08/03 05:43:53;;;;;;;15.57;4.32;;;21.40;99.90;;;;;;5094525;28;20547;-77
2022/08/03 05:46:21;;;;;;;12.07;5.15;;;21.50;99.90;;;;;;5101479;28;20212;-75
2022/08/03 05:48:48;;;;;;;10.98;4.57;;;21.60;99.90;;;;;;5097599;28;20276;-76
2022/08/03 05:51:15;;;;;;;10.75;4.50;;;21.70;99.90;;;;;;5102114;28;20686;-75
2022/08/03 05:53:42;;;;;;;11.20;4.50;;;21.80;99.90;;;;;;5100701;28;20207;-74
2022/08/03 05:56:09;;;;;;;12.10;4.63;;;21.90;99.90;;;;;;5096690;28;20211;-75
2022/08/03 05:58:46;;;;;;;17.05;4.05;;;22.10;99.90;;;;;;5100053;28;20223;-75
2022/08/03 06:01:15;;;;;;;8.68;4.22;;;22.50;99.90;;;;;;5095371;28;20203;-75
2022/08/03 06:03:42;;;;;;;11.52;4.22;;;23.20;99.90;;;;;;5101767;28;20215;-78
2022/08/03 06:06:10;;;;;;;14.88;4.75;;;23.60;99.90;;;;;;5098332;28;20619;-77
2022/08/03 06:08:37;;;;;;;10.10;3.72;;;24.00;99.90;;;;;;5098653;28;20223;-77
2022/08/03 06:11:04;;;;;;;15.60;3.65;;;24.60;99.90;;;;;;5097607;28;20210;-76
2022/08/03 06:13:32;;;;;;;10.55;3.80;;;25.20;99.90;;;;;;5097794;28;20203;-75
2022/08/03 06:15:59;;;;;;;9.90;3.42;;;25.70;99.90;;;;;;5093739;28;20195;-77
2022/08/03 06:18:25;;;;;;;11.35;3.70;;;26.00;99.90;;;;;;5096120;28;20281;-75
2022/08/03 06:20:53;;;;;;;8.95;3.20;;;26.30;99.90;;;;;;5098590;28;20195;-75
2022/08/03 06:23:21;;;;;;;9.93;3.30;;;26.40;99.90;;;;;;5102721;28;20199;-77
2022/08/03 06:25:47;;;;;;;11.77;3.75;;;26.50;99.90;;;;;;5099158;28;20206;-76
2022/08/03 06:28:14;;;;;;;10.25;3.42;;;26.50;99.90;;;;;;5098158;28;20212;-76
2022/08/03 06:31:02;;;;;;;10.57;3.40;;;26.80;99.90;;;;;;5092622;28;20696;-76
2022/08/03 06:33:32;;;;;;;13.48;3.95;;;27.50;99.90;;;;;;5093119;28;20653;-76
2022/08/03 06:36:19;;;;;;;8.82;3.47;;;27.50;99.90;;;;;;5097351;28;20356;-76
2022/08/03 06:38:46;;;;;;;12.95;3.70;;;27.70;99.90;;;;;;5104845;28;20254;-76
2022/08/03 06:41:13;;;;;;;11.05;3.00;;;28.10;99.90;;;;;;5103789;28;20238;-76
2022/08/03 06:43:39;;;;;;;8.65;3.15;;;28.30;99.90;;;;;;5101294;28;20680;-76
2022/08/03 06:46:26;;;;;;;12.38;3.83;;;28.50;99.90;;;;;;5098114;28;20646;-76
2022/08/03 06:48:55;;;;;;;12.25;3.63;;;28.30;99.90;;;;;;5092955;28;20220;-75
2022/08/03 06:51:22;;;;;;;12.13;3.70;;;28.40;99.90;;;;;;5100454;28;20238;-76
2022/08/03 06:54:09;;;;;;;7.35;3.00;;;28.70;99.90;;;;;;5098961;28;20256;-76
2022/08/03 06:56:36;;;;;;;10.10;3.63;;;28.80;99.90;;;;;;5093558;28;20681;-77
2022/08/03 06:59:03;;;;;;;8.10;3.67;;;29.30;99.90;;;;;;5101370;28;20254;-78
2022/08/03 07:01:30;;;;;;;12.55;2.90;;;29.50;99.90;;;;;;5095702;28;20207;-77
2022/08/03 07:03:56;;;;;;;11.55;3.20;;;29.50;99.90;;;;;;5102374;28;20694;-77
2022/08/03 07:06:23;;;;;;;12.75;3.13;;;29.30;99.90;;;;;;5100621;28;20206;-77
2022/08/03 07:08:50;;;;;;;11.52;3.35;;;29.20;99.90;;;;;;5105943;28;20711;-77
2022/08/03 07:11:22;;;;;;;11.13;3.45;;;29.10;99.90;;;;;;5106916;28;20207;-77
2022/08/03 07:13:48;;;;;;;10.35;3.50;;;29.00;99.90;;;;;;5104907;28;20238;-76
2022/08/03 07:16:15;;;;;;;14.80;3.20;;;29.30;99.90;;;;;;5101186;28;20565;-77
2022/08/03 07:18:43;;;;;;;10.90;3.55;;;29.50;99.90;;;;;;5101848;28;20235;-77
2022/08/03 07:21:11;;;;;;;8.65;3.05;;;29.60;99.90;;;;;;5100124;28;20257;-76
2022/08/03 07:23:38;;;;;;;12.40;2.97;;;29.50;99.90;;;;;;5102910;28;20256;-76
2022/08/03 07:26:05;;;;;;;11.05;2.88;;;29.70;99.90;;;;;;5100939;28;20745;-77
2022/08/03 07:28:32;;;;;;;12.35;3.45;;;29.80;99.90;;;;;;5097736;28;20301;-77
2022/08/03 07:30:58;;;;;;;13.15;3.42;;;30.00;99.90;;;;;;5097771;28;20282;-77
2022/08/03 07:33:25;;;;;;;11.05;3.22;;;29.90;99.90;;;;;;5104687;28;20211;-77
2022/08/03 07:35:52;;;;;;;13.38;3.70;;;29.90;99.90;;;;;;5105610;28;20782;-77
2022/08/03 07:38:19;;;;;;;6.97;2.88;;;30.20;99.90;;;;;;5096366;28;20268;-77
2022/08/03 07:40:47;;;;;;;12.18;3.20;;;30.40;99.90;;;;;;5097614;28;20326;-77
2022/08/03 07:43:13;;;;;;;9.65;3.15;;;30.50;99.90;;;;;;5096885;28;20651;-79
2022/08/03 07:45:40;;;;;;;12.30;2.70;;;30.60;99.90;;;;;;5098384;28;20222;-78
2022/08/03 07:48:07;;;;;;;11.70;3.38;;;30.70;99.90;;;;;;5102921;28;20215;-77
2022/08/03 07:50:38;;;;;;;9.82;2.80;;;31.00;99.90;;;;;;5101458;28;20214;-79
2022/08/03 07:53:05;;;;;;;11.20;3.08;;;30.90;99.90;;;;;;5105428;28;20191;-78
2022/08/03 07:55:31;;;;;;;11.10;2.90;;;31.10;99.90;;;;;;5098636;28;20207;-76
2022/08/03 07:58:08;;;;;;;15.05;3.80;;;31.20;99.90;;;;;;5104612;28;20254;-77
2022/08/03 08:00:35;;;;;;;15.60;3.33;;;31.50;99.90;;;;;;5102964;28;20249;-78
2022/08/03 08:03:03;;;;;;;14.52;2.58;;;31.50;99.90;;;;;;5098967;28;20215;-77
2022/08/03 08:05:30;;;;;;;10.20;2.50;;;31.60;99.90;;;;;;5095926;28;20312;-78
2022/08/03 08:07:57;;;;;;;11.48;3.40;;;31.70;99.90;;;;;;5099584;28;20216;-78
2022/08/03 08:10:24;;;;;;;11.80;3.10;;;32.10;99.90;;;;;;5098478;28;20214;-80
2022/08/03 08:12:51;;;;;;;5.55;2.30;;;32.40;99.90;;;;;;5101796;28;20198;-77
2022/08/03 08:15:18;;;;;;;9.05;2.40;;;32.50;99.90;;;;;;5106333;28;20585;-79
2022/08/03 08:17:48;;;;;;;10.00;2.80;;;32.70;99.90;;;;;;5099492;28;20247;-78
2022/08/03 08:20:18;;;;;;;8.85;2.63;;;33.00;99.90;;;;;;5105578;28;20222;-78
2022/08/03 08:22:56;;;;;;;10.77;2.53;;;33.60;99.90;;;;;;5098761;28;20236;-78
2022/08/03 08:25:24;;;;;;;11.63;2.72;;;34.00;99.90;;;;;;5098073;28;20211;-78
2022/08/03 08:27:51;;;;;;;7.00;2.53;;;34.10;99.50;;;;;;5096561;28;20207;-79
2022/08/03 08:30:38;;;;;;;10.05;2.53;;;34.30;99.00;;;;;;5097883;28;20293;-78
2022/08/03 08:33:05;;;;;;;10.02;2.95;;;34.60;98.40;;;;;;5094572;28;20319;-78
2022/08/03 08:35:31;;;;;;;6.72;2.17;;;34.60;97.30;;;;;;5100511;28;20199;-78
2022/08/03 08:38:01;;;;;;;9.75;2.65;;;34.70;97.00;;;;;;5099533;28;20605;-77
2022/08/03 08:40:31;;;;;;;9.60;2.47;;;34.60;95.80;;;;;;5101633;28;20242;-79
2022/08/03 08:42:58;;;;;;;9.80;2.53;;;34.50;95.80;;;;;;5096970;28;20200;-79
2022/08/03 08:45:25;;;;;;;9.60;2.13;;;34.30;96.10;;;;;;5100548;28;20202;-78
2022/08/03 08:47:54;;;;;;;9.98;2.42;;;34.30;96.20;;;;;;5094158;28;20246;-76
2022/08/03 08:50:28;;;;;;;8.18;2.70;;;34.40;95.70;;;;;;5102078;27;20206;-78
2022/08/03 08:52:59;;;;;;;11.05;2.92;;;34.50;95.10;;;;;;5100112;28;20635;-79
2022/08/03 08:55:26;;;;;;;10.98;2.60;;;34.30;94.70;;;;;;5098841;28;20539;-78
2022/08/03 08:58:03;;;;;;;10.25;3.05;;;34.10;94.50;;;;;;5096877;28;20272;-79
2022/08/03 09:00:31;;;;;;;10.73;2.80;;;33.60;94.30;;;;;;5096828;28;20284;-77
2022/08/03 09:03:00;;;;;;;13.35;3.15;;;33.30;95.10;;;;;;5100211;28;20219;-78
2022/08/03 09:05:31;;;;;;;10.43;3.00;;;33.10;95.30;;;;;;5096956;28;20620;-78
2022/08/03 09:08:18;;;;;;;10.85;2.95;;;33.30;95.90;;;;;;5098287;28;20199;-78
2022/08/03 09:10:45;;;;;;;12.27;2.92;;;33.60;95.20;;;;;;5099252;28;20259;-78
2022/08/03 09:13:13;;;;;;;13.82;3.60;;;33.90;94.40;;;;;;5096656;28;20292;-78
2022/08/03 09:15:41;;;;;;;12.70;3.10;;;33.90;93.70;;;;;;5092531;28;20605;-76
2022/08/03 09:18:28;;;;;;;12.82;2.90;;;33.70;93.20;;;;;;5096639;28;20219;-79
2022/08/03 09:21:25;;;;;;;15.18;3.00;;;33.40;93.40;;;;;;5093433;28;20547;-79
2022/08/03 09:24:03;;;;;;;15.75;3.47;;;33.10;93.40;;;;;;5098678;28;20718;-78
2022/08/03 09:26:35;;;;;;;17.42;3.17;;;33.00;93.30;;;;;;5096684;28;20211;-79
2022/08/03 09:29:09;;;;;;;14.70;4.07;;;32.90;93.50;;;;;;5099601;28;20206;-79
2022/08/03 09:31:45;;;;;;;19.13;3.60;;;32.90;94.10;;;;;;5096560;28;20670;-77
2022/08/03 09:34:15;;;;;;;12.35;3.55;;;33.10;94.00;;;;;;5101318;28;20689;-78
2022/08/03 09:36:49;;;;;;;21.42;4.70;;;33.20;94.10;;;;;;5096695;28;20203;-79
2022/08/03 09:39:21;;;;;;;17.35;3.88;;;33.30;92.80;;;;;;5101078;28;20344;-79
2022/08/03 09:42:10;;;;;;;19.23;3.75;;;33.30;92.70;;;;;;5103472;28;20294;-78
2022/08/03 09:44:42;;;;;;;15.70;3.92;;;33.20;92.30;;;;;;5100425;28;20276;-77
2022/08/03 09:47:11;;;;;;;12.70;3.50;;;33.30;91.90;;;;;;5103605;28;20215;-77
2022/08/03 09:49:42;;;;;;;18.15;3.72;;;33.10;91.80;;;;;;5098688;28;20203;-76
2022/08/03 09:52:17;;;;;;;16.27;3.67;;;32.90;91.70;;;;;;5101846;27;20704;-78
2022/08/03 09:55:11;;;;;;;12.35;3.33;;;32.80;91.70;;;;;;5097871;28;20680;-79
2022/08/03 09:58:09;;;;;;;16.50;3.63;;;32.70;91.50;;;;;;5099563;28;20710;-78
2022/08/03 10:00:53;;;;;;;16.65;3.88;;;32.70;91.50;;;;;;5104021;28;20229;-78
2022/08/03 10:03:22;;;;;;;18.98;3.78;;;32.70;91.90;;;;;;5097143;28;20250;-76
2022/08/03 10:05:48;;;;;;;13.15;3.38;;;32.70;91.90;;;;;;5096731;28;20256;-78
2022/08/03 10:08:17;;;;;;;17.13;3.92;;;32.80;91.80;;;;;;5099159;28;20278;-76
2022/08/03 10:10:47;;;;;;;15.85;4.03;;;32.90;91.80;;;;;;5103920;28;20269;-77
2022/08/03 10:13:18;;;;;;;13.10;3.70;;;33.10;92.00;;;;;;5093630;28;20214;-78
2022/08/03 10:15:46;;;;;;;13.18;3.17;;;33.20;91.70;;;;;;5098674;28;20219;-76
2022/08/03 10:18:32;;;;;;;13.95;3.50;;;32.90;91.40;;;;;;5095534;28;20573;-77
2022/08/03 10:21:07;;;;;;;12.00;3.17;;;32.90;91.20;;;;;;5097906;28;20230;-77
2022/08/03 10:23:36;;;;;;;17.15;3.28;;;33.00;91.20;;;;;;5098625;28;20256;-76
2022/08/03 10:26:05;;;;;;;12.57;3.22;;;33.10;91.50;;;;;;5097281;28;20203;-76
2022/08/03 10:28:39;;;;;;;10.02;2.85;;;33.00;90.90;;;;;;5099757;28;20207;-78
2022/08/03 10:31:12;;;;;;;15.63;3.30;;;32.90;91.00;;;;;;5097299;28;20206;-77
2022/08/03 10:33:46;;;;;;;16.17;3.47;;;32.80;91.30;;;;;;5101761;28;20258;-77
2022/08/03 10:36:23;;;;;;;20.95;3.45;;;32.80;90.90;;;;;;5104784;28;20191;-77
2022/08/03 10:38:51;;;;;;;14.65;3.67;;;32.80;91.20;;;;;;5106456;28;20199;-75
2022/08/03 10:41:20;;;;;;;17.60;3.58;;;32.60;91.50;;;;;;5100170;27;20275;-78
2022/08/03 10:44:01;;;;;;;14.85;3.28;;;32.70;91.60;;;;;;5105385;28;20195;-77
2022/08/03 10:46:28;;;;;;;9.85;2.95;;;32.70;91.70;;;;;;5107366;28;20247;-78
2022/08/03 10:48:55;;;;;;;13.90;3.75;;;32.70;91.50;;;;;;5106252;28;20214;-76
2022/08/03 10:51:23;;;;;;;12.63;3.28;;;32.70;91.30;;;;;;5102061;27;20202;-76
2022/08/03 10:53:50;;;;;;;11.23;3.17;;;32.80;91.10;;;;;;5109842;27;20195;-75
2022/08/03 10:59:45;;;;;;;16.45;3.80;;;32.90;91.10;;;;;;5104789;28;20333;-77
2022/08/03 11:02:15;;;;;;;11.93;3.05;;;32.80;91.00;;;;;;5106986;28;20214;-75
2022/08/03 11:04:43;;;;;;;17.63;3.40;;;32.70;90.80;;;;;;5105591;28;20195;-75
2022/08/03 11:07:20;;;;;;;11.90;2.90;;;32.50;90.20;;;;;;5107374;28;20213;-75
2022/08/03 11:09:53;;;;;;;12.43;3.00;;;32.50;90.40;;;;;;5100319;28;20358;-76
2022/08/03 11:12:26;;;;;;;16.83;3.30;;;32.60;90.80;;;;;;5102555;27;20242;-76
2022/08/03 11:15:00;;;;;;;13.60;2.70;;;32.60;90.90;;;;;;5101193;28;20194;-76
2022/08/03 11:17:27;;;;;;;15.45;3.00;;;32.60;90.40;;;;;;5108303;28;20218;-76
2022/08/03 11:19:54;;;;;;;9.43;2.40;;;32.70;89.20;;;;;;5108936;28;20262;-75
2022/08/03 11:22:24;;;;;;;12.55;3.03;;;32.70;89.50;;;;;;5104817;28;20199;-77
2022/08/03 11:24:53;;;;;;;11.50;2.45;;;32.70;89.10;;;;;;5106235;28;20194;-77
2022/08/03 11:27:21;;;;;;;12.50;2.67;;;32.60;88.40;;;;;;5107464;28;20205;-76
2022/08/03 11:30:09;;;;;;;13.93;2.80;;;32.60;88.50;;;;;;5102606;28;20229;-77
2022/08/03 11:32:39;;;;;;;15.65;3.20;;;32.70;88.10;;;;;;5098214;28;20695;-76
2022/08/03 11:35:23;;;;;;;14.35;2.88;;;32.90;88.90;;;;;;5102293;28;20282;-76
2022/08/03 11:37:55;;;;;;;12.05;2.67;;;33.00;88.50;;;;;;5102341;28;20264;-77
2022/08/03 11:40:39;;;;;;;11.70;2.63;;;33.10;88.60;;;;;;5105656;28;20242;-76
2022/08/03 11:43:10;;;;;;;8.50;2.40;;;33.20;87.50;;;;;;5106323;28;20195;-76
2022/08/03 11:45:37;;;;;;;8.50;2.42;;;33.30;86.20;;;;;;5103836;28;20204;-76
2022/08/03 11:48:32;;;;;;;11.25;2.28;;;33.30;86.40;;;;;;5094508;28;20216;-76
2022/08/03 11:51:04;;;;;;;7.53;2.00;;;33.30;86.60;;;;;;5104039;28;20231;-77
2022/08/03 11:53:32;;;;;;;7.53;2.28;;;33.30;86.50;;;;;;5100471;28;20261;-77
2022/08/03 11:56:07;;;;;;;9.10;2.13;;;33.40;86.60;;;;;;5098342;28;20203;-76
2022/08/03 11:58:47;;;;;;;8.23;2.72;;;33.50;86.20;;;;;;5101396;28;20203;-77
2022/08/03 12:01:34;;;;;;;12.55;2.92;;;33.60;86.70;;;;;;5096108;28;20724;-77
2022/08/03 12:04:05;;;;;;;10.93;2.60;;;33.50;85.90;;;;;;5093152;28;20580;-76
2022/08/03 12:06:53;;;;;;;9.18;2.47;;;33.60;86.20;;;;;;5102964;28;20674;-76
2022/08/03 12:09:21;;;;;;;11.68;2.78;;;33.70;85.70;;;;;;5099971;28;20268;-75
2022/08/03 12:11:49;;;;;;;8.88;2.28;;;33.80;85.10;;;;;;5099770;28;20225;-76
2022/08/03 12:14:27;;;;;;;9.50;2.35;;;33.90;84.90;;;;;;5102356;28;20203;-77
2022/08/03 12:17:14;;;;;;;7.93;2.20;;;34.00;85.00;;;;;;5094842;28;20219;-77
2022/08/03 12:19:42;;;;;;;9.63;2.08;;;34.10;84.10;;;;;;5097164;28;20208;-76
2022/08/03 12:22:08;;;;;;;11.90;2.53;;;34.10;81.40;;;;;;5099187;28;20643;-77
2022/08/03 12:24:42;;;;;;;9.77;2.58;;;33.90;80.40;;;;;;5100104;28;20625;-76
2022/08/03 12:27:22;;;;;;;11.70;2.40;;;33.90;81.90;;;;;;5100828;28;20199;-77
2022/08/03 12:29:54;;;;;;;8.68;2.33;;;33.80;80.40;;;;;;5104039;28;20654;-76
2022/08/03 12:32:28;;;;;;;14.07;2.50;;;33.70;80.70;;;;;;5101182;28;20376;-78
2022/08/03 12:34:59;;;;;;;7.18;2.40;;;33.80;82.30;;;;;;5094338;28;20210;-76
2022/08/03 12:37:27;;;;;;;9.73;2.38;;;33.90;82.10;;;;;;5102240;28;20612;-77
2022/08/03 12:40:00;;;;;;;15.98;2.25;;;34.10;82.70;;;;;;5099835;28;20241;-75
2022/08/03 12:42:37;;;;;;;10.13;2.30;;;34.30;82.10;;;;;;5101311;28;20561;-75
2022/08/03 12:45:25;;;;;;;12.30;2.80;;;34.40;81.50;;;;;;5098646;28;20207;-77
2022/08/03 12:47:56;;;;;;;9.77;2.15;;;34.50;81.60;;;;;;5104766;28;20268;-79
2022/08/03 12:50:29;;;;;;;12.25;2.70;;;34.30;79.40;;;;;;5104924;28;20199;-78
2022/08/03 12:52:59;;;;;;;12.50;2.47;;;34.40;79.30;;;;;;5098487;28;20203;-79
2022/08/03 12:55:32;;;;;;;13.07;2.67;;;34.50;78.60;;;;;;5092473;28;20212;-76
2022/08/03 12:58:33;;;;;;;10.25;2.80;;;34.40;78.20;;;;;;5098437;28;20235;-76
2022/08/03 13:01:03;;;;;;;10.77;2.35;;;34.40;77.80;;;;;;5095221;28;20233;-77
2022/08/03 13:03:44;;;;;;;14.88;2.63;;;34.20;76.80;;;;;;5099778;28;20211;-77
2022/08/03 13:06:18;;;;;;;11.50;2.75;;;34.40;77.30;;;;;;5100348;28;20200;-78
2022/08/03 13:08:46;;;;;;;13.32;2.58;;;34.30;76.10;;;;;;5096190;28;20199;-77
2022/08/03 13:11:25;;;;;;;10.55;2.90;;;34.40;75.70;;;;;;5096752;28;20211;-78